»·PEaware :: DEL2121 KFLL-TJSJ

DEL2121 :: KFLL-TJSJ

FLIGHT INFORMATION

Flight Status: Arrived
Operator: Unknown
More flights by this operator :: More flights under this callsign
Pilot: Edgar M. (23243)
Aircraft: Unknown
(737)
More flights by this aircraft type
Origin: KFLL Ft Lauderdale-Hollywood Intl
United States
Destination: TJSJ Luis Munoz Marin Intl
Puerto Rico
More flights between these airports :: More routes between these airports
Route: BEECH5 BAHMA Y443 SUMAC Y421 HAGIT Y290 BEANO BEANO3
File this flight plan on PilotEdge
Remarks: PBN / A1B1C1D1S1S2 DOF / 190131 REG / N806SB EET / TJZS0132 OPR / DEL PER / C RMK / TCAS SIMBRIEF
Altitude:
(Current/Filed)
35,000ft
Speed:
(Current/Filed)
441kts
Departed: 30-Jan-19 05:00 PM
Arrived: 30-Jan-19 07:05 PM
Distance/Time
Traveled:
908nm/2:05
Distance/Time
To Go:
Arrived

Flight Plot

Page will automatically refresh every two minutes.

Flight plan parsing failed; only flown route is shown


Map Options




Map Legend


Flown Route
Filed Route
Departure Airport
Arrival Airport
Navaid (VOR, NDB)
Fix

Horizontal Profiles

Position Reports

Time Latitude Longitude Heading Altitude Ground
Speed
30-Jan-19 16:23 26.073832 -80.144272 137 16ft 0kts
30-Jan-19 16:24 26.073832 -80.144272 137 16ft 0kts
30-Jan-19 16:25 26.073832 -80.144272 137 16ft 0kts
30-Jan-19 16:26 26.073832 -80.144272 137 16ft 0kts
30-Jan-19 16:27 26.073832 -80.144272 137 16ft 0kts
30-Jan-19 16:28 26.073832 -80.144272 137 16ft 0kts
30-Jan-19 16:29 26.073832 -80.144272 137 16ft 0kts
30-Jan-19 16:30 26.073832 -80.144272 137 16ft 0kts
30-Jan-19 16:31 26.073832 -80.144272 137 16ft 0kts
30-Jan-19 16:32 26.073832 -80.144272 137 16ft 0kts
30-Jan-19 16:33 26.073832 -80.144272 137 16ft 0kts
30-Jan-19 16:34 26.073832 -80.144272 137 16ft 0kts
30-Jan-19 16:35 26.073832 -80.144272 137 16ft 0kts
30-Jan-19 16:36 26.073832 -80.144272 137 16ft 0kts
30-Jan-19 16:37 26.073832 -80.144272 137 16ft 0kts
30-Jan-19 16:38 26.073832 -80.144272 137 16ft 0kts
30-Jan-19 16:39 26.073832 -80.144272 137 16ft 0kts
30-Jan-19 16:40 26.073832 -80.144272 137 16ft 0kts
30-Jan-19 16:41 26.073832 -80.144272 137 16ft 0kts
30-Jan-19 16:42 26.073832 -80.144272 137 16ft 0kts
30-Jan-19 16:43 26.073832 -80.144272 137 16ft 0kts
30-Jan-19 16:44 26.073832 -80.144272 137 16ft 0kts
30-Jan-19 16:46 26.073832 -80.144272 137 16ft 0kts
30-Jan-19 16:47 26.073832 -80.144272 137 16ft 0kts
30-Jan-19 16:48 26.073968 -80.144436 115 16ft 2kts
30-Jan-19 16:49 26.073705 -80.144889 3 16ft 2kts
30-Jan-19 16:50 26.073433 -80.144893 0 16ft 0kts
30-Jan-19 16:51 26.073433 -80.144893 0 16ft 0kts
30-Jan-19 16:52 26.073433 -80.144893 0 16ft 0kts
30-Jan-19 16:53 26.074539 -80.144908 353 16ft 8kts
30-Jan-19 16:54 26.075573 -80.148054 271 16ft 12kts
30-Jan-19 16:55 26.075553 -80.151247 286 16ft 16kts
30-Jan-19 16:56 26.075652 -80.159442 270 16ft 33kts
30-Jan-19 16:57 26.076171 -80.165605 357 16ft 8kts
30-Jan-19 16:58 26.076374 -80.165613 1 16ft 0kts
30-Jan-19 16:59 26.076970 -80.164820 91 16ft 15kts
30-Jan-19 17:00 26.076784 -80.123884 89 1070ft 194kts
30-Jan-19 17:01 26.076415 -80.065121 87 4076ft 183kts
30-Jan-19 17:01 26.077587 -80.017044 85 5585ft 192kts
30-Jan-19 17:03 26.075592 -79.932702 91 6591ft 272kts
30-Jan-19 17:04 26.063093 -79.848452 103 8844ft 280kts
30-Jan-19 17:05 26.045670 -79.757909 102 10644ft 315kts
30-Jan-19 17:06 26.025810 -79.653461 102 11675ft 376kts
30-Jan-19 17:06 26.006827 -79.552749 102 12461ft 419kts
30-Jan-19 17:07 25.982552 -79.423707 102 14549ft 432kts
30-Jan-19 17:08 25.962193 -79.290066 98 16583ft 445kts
30-Jan-19 17:10 25.935140 -79.130327 112 18708ft 458kts
30-Jan-19 17:11 25.868357 -79.008533 126 20366ft 466kts
30-Jan-19 17:11 25.806790 -78.908237 125 21620ft 475kts
30-Jan-19 17:12 25.732520 -78.785721 125 22959ft 484kts
30-Jan-19 17:13 25.656461 -78.660849 125 24164ft 492kts
30-Jan-19 17:14 25.590491 -78.526490 109 25247ft 503kts
30-Jan-19 17:15 25.552430 -78.377086 106 26421ft 504kts
30-Jan-19 17:16 25.515165 -78.227447 106 27687ft 502kts
30-Jan-19 17:17 25.478150 -78.078944 106 28907ft 499kts
30-Jan-19 17:18 25.440953 -77.931047 106 30089ft 497kts
30-Jan-19 17:19 25.403718 -77.784172 106 31197ft 495kts
30-Jan-19 17:20 25.366668 -77.638171 106 32235ft 493kts
30-Jan-19 17:21 25.329511 -77.492799 106 33216ft 490kts
30-Jan-19 17:22 25.287836 -77.349757 116 34128ft 487kts
30-Jan-19 17:23 25.217766 -77.222578 124 34962ft 484kts
30-Jan-19 17:24 25.144579 -77.097398 124 34976ft 483kts
30-Jan-19 17:25 25.071586 -76.972668 124 34972ft 484kts
30-Jan-19 17:26 24.998320 -76.847644 124 34976ft 484kts
30-Jan-19 17:27 24.925219 -76.723461 123 34985ft 484kts
30-Jan-19 17:28 24.851937 -76.599416 124 34977ft 484kts
30-Jan-19 17:29 24.778325 -76.474959 124 34975ft 484kts
30-Jan-19 17:30 24.704822 -76.350841 124 34971ft 484kts
30-Jan-19 17:31 24.631217 -76.227133 125 34980ft 484kts
30-Jan-19 17:32 24.558016 -76.102960 123 34978ft 484kts
30-Jan-19 17:33 24.487439 -75.976919 123 34977ft 484kts
30-Jan-19 17:34 24.416622 -75.850888 123 34977ft 484kts
30-Jan-19 17:35 24.346032 -75.725078 122 34975ft 484kts
30-Jan-19 17:36 24.275501 -75.599650 123 34977ft 484kts
30-Jan-19 17:37 24.204420 -75.473830 123 34976ft 484kts
30-Jan-19 17:38 24.133526 -75.348650 123 34978ft 484kts
30-Jan-19 17:39 24.062307 -75.223194 123 34976ft 484kts
30-Jan-19 17:40 23.991091 -75.098136 123 34979ft 484kts
30-Jan-19 17:41 23.919826 -74.973239 123 34977ft 484kts
30-Jan-19 17:42 23.848245 -74.848248 123 34975ft 484kts
30-Jan-19 17:43 23.776630 -74.723415 123 34979ft 484kts
30-Jan-19 17:44 23.704941 -74.598808 123 34967ft 485kts
30-Jan-19 17:45 23.633191 -74.474388 123 34971ft 484kts
30-Jan-19 17:46 23.561401 -74.350142 123 34978ft 484kts
30-Jan-19 17:47 23.489537 -74.226045 123 34972ft 484kts
30-Jan-19 17:48 23.417499 -74.102119 124 34971ft 484kts
30-Jan-19 17:49 23.345281 -73.978000 124 34981ft 484kts
30-Jan-19 17:50 23.273048 -73.854215 123 34970ft 485kts
30-Jan-19 17:51 23.200683 -73.730618 124 34984ft 484kts
30-Jan-19 17:52 23.128326 -73.607240 123 34979ft 485kts
30-Jan-19 17:53 23.055774 -73.483786 124 34973ft 485kts
30-Jan-19 17:54 22.982939 -73.360118 124 34978ft 485kts
30-Jan-19 17:55 22.910279 -73.237135 124 34976ft 484kts
30-Jan-19 17:56 22.837557 -73.114303 124 34976ft 485kts
30-Jan-19 17:57 22.764543 -72.991298 124 34974ft 485kts
30-Jan-19 17:58 22.691509 -72.868473 124 34981ft 485kts
30-Jan-19 17:59 22.618579 -72.746069 123 34981ft 485kts
30-Jan-19 18:00 22.545283 -72.623531 125 34981ft 485kts
30-Jan-19 18:01 22.471948 -72.501231 124 34981ft 484kts
30-Jan-19 18:02 22.398474 -72.378925 124 34976ft 485kts
30-Jan-19 18:03 22.324994 -72.256810 124 34977ft 485kts
30-Jan-19 18:04 22.251400 -72.134840 124 34983ft 485kts
30-Jan-19 18:05 22.177463 -72.012648 124 34971ft 485kts
30-Jan-19 18:06 22.103823 -71.891046 125 34973ft 485kts
30-Jan-19 18:07 22.029964 -71.769379 123 34975ft 485kts
30-Jan-19 18:08 21.956046 -71.647802 124 34980ft 485kts
30-Jan-19 18:09 21.881892 -71.526299 125 34976ft 485kts
30-Jan-19 18:10 21.807803 -71.405278 124 34977ft 485kts
30-Jan-19 18:11 21.733646 -71.284068 124 34973ft 485kts
30-Jan-19 18:12 21.659193 -71.162794 125 34974ft 485kts
30-Jan-19 18:13 21.584739 -71.041972 125 34976ft 485kts
30-Jan-19 18:14 21.508913 -70.922451 126 34978ft 485kts
30-Jan-19 18:15 21.432734 -70.803133 126 34284ft 482kts
30-Jan-19 18:16 21.356646 -70.683987 125 33284ft 484kts
30-Jan-19 18:17 21.280562 -70.564754 126 32487ft 485kts
30-Jan-19 18:18 21.203402 -70.444482 125 32529ft 490kts
30-Jan-19 18:19 21.126309 -70.324296 125 32524ft 490kts
30-Jan-19 18:20 21.048950 -70.204244 126 32531ft 490kts
30-Jan-19 18:21 20.971495 -70.084177 126 32506ft 490kts
30-Jan-19 18:22 20.894020 -69.964377 126 32511ft 490kts
30-Jan-19 18:23 20.816816 -69.844050 126 32437ft 490kts
30-Jan-19 18:24 20.738748 -69.724654 127 32457ft 490kts
30-Jan-19 18:25 20.660332 -69.604143 126 31483ft 492kts
30-Jan-19 18:26 20.581734 -69.483827 127 29689ft 496kts
30-Jan-19 18:27 20.502561 -69.362645 127 27893ft 499kts
30-Jan-19 18:28 20.422786 -69.240781 126 26097ft 503kts
30-Jan-19 18:29 20.343186 -69.119495 126 24296ft 493kts
30-Jan-19 18:30 20.265689 -69.001594 126 22500ft 480kts
30-Jan-19 18:31 20.189804 -68.886199 126 20695ft 468kts
30-Jan-19 18:32 20.115524 -68.773751 126 20013ft 464kts
30-Jan-19 18:33 20.042518 -68.660097 124 19978ft 465kts
30-Jan-19 18:34 19.971792 -68.545413 125 19976ft 464kts
30-Jan-19 18:35 19.900598 -68.430550 125 19976ft 464kts
30-Jan-19 18:36 19.829612 -68.315878 125 19976ft 464kts
30-Jan-19 18:37 19.758510 -68.201434 125 19976ft 464kts
30-Jan-19 18:38 19.687085 -68.086754 125 19976ft 464kts
30-Jan-19 18:39 19.615841 -67.972384 125 19976ft 464kts
30-Jan-19 18:40 19.544411 -67.858244 125 19976ft 464kts
30-Jan-19 18:41 19.472804 -67.744109 125 19976ft 464kts
30-Jan-19 18:42 19.401914 -67.631613 125 18348ft 453kts
30-Jan-19 18:43 19.332605 -67.521819 125 16542ft 441kts
30-Jan-19 18:44 19.267034 -67.417839 125 14740ft 404kts
30-Jan-19 18:45 19.207137 -67.322952 125 12935ft 373kts
30-Jan-19 18:46 19.151068 -67.234346 125 11147ft 353kts
30-Jan-19 18:47 19.100623 -67.154761 126 10968ft 306kts
30-Jan-19 18:48 19.052815 -67.079438 126 10976ft 310kts
30-Jan-19 18:49 19.004550 -67.003487 126 10976ft 310kts
30-Jan-19 18:50 18.952490 -66.921672 125 11009ft 385kts
30-Jan-19 18:52 18.889757 -66.823023 125 10979ft 408kts
30-Jan-19 18:53 18.826283 -66.723639 125 10976ft 408kts
30-Jan-19 18:54 18.765901 -66.629254 126 10969ft 358kts
30-Jan-19 18:55 18.707226 -66.550744 132 10038ft 328kts
30-Jan-19 18:56 18.652445 -66.480801 132 9040ft 303kts
30-Jan-19 18:57 18.599314 -66.412564 131 7471ft 296kts
30-Jan-19 18:58 18.547867 -66.346412 131 5871ft 288kts
30-Jan-19 18:59 18.497874 -66.282067 129 4294ft 279kts
30-Jan-19 19:00 18.450283 -66.220683 128 3177ft 247kts
30-Jan-19 19:01 18.432939 -66.164191 86 2407ft 180kts
30-Jan-19 19:02 18.433772 -66.116157 87 2006ft 157kts
30-Jan-19 19:03 18.433738 -66.070901 88 1148ft 152kts
30-Jan-19 19:04 18.433690 -66.026702 89 304ft 142kts
30-Jan-19 19:05 18.433545 -65.999194 88 16ft 27kts
30-Jan-19 19:06 18.434966 -65.996542 268 16ft 22kts
30-Jan-19 19:07 18.435999 -66.000772 286 16ft 13kts
30-Jan-19 19:08 18.437987 -66.003095 259 16ft 19kts
30-Jan-19 19:09 18.438154 -66.004585 335 16ft 0kts
30-Jan-19 19:10 18.438154 -66.004585 335 16ft 0kts
30-Jan-19 19:10 18.438154 -66.004585 335 16ft 0kts
30-Jan-19 19:11 18.438154 -66.004585 335 16ft 0kts
30-Jan-19 19:13 18.438154 -66.004585 335 16ft 0kts
30-Jan-19 19:14 18.438154 -66.004585 335 16ft 0kts
30-Jan-19 19:14 18.438154 -66.004585 335 16ft 0kts

Navigation Log

Ident Type
Flight plan parsing failed, navigation log unavailable